createdAt,value
2023-02-21T00:01:10.548Z,5.30
2023-02-21T00:03:56.625Z,5.30
2023-02-21T00:06:42.183Z,5.30
2023-02-21T00:09:28.138Z,5.90
2023-02-21T00:12:13.817Z,5.50
2023-02-21T00:14:59.970Z,5.50
2023-02-21T00:17:45.739Z,5.80
2023-02-21T00:20:31.740Z,5.50
2023-02-21T00:23:17.545Z,5.20
2023-02-21T00:26:03.538Z,5.50
2023-02-21T00:28:51.074Z,5.40
2023-02-21T00:31:39.670Z,5.30
2023-02-21T00:34:25.165Z,5.70
2023-02-21T00:37:11.662Z,5.50
2023-02-21T00:39:57.250Z,5.40
2023-02-21T00:42:42.947Z,5.50
2023-02-21T00:45:29.105Z,5.40
2023-02-21T00:48:15.024Z,4.80
2023-02-21T00:51:00.512Z,5.70
2023-02-21T00:53:46.345Z,5.10
2023-02-21T00:56:31.773Z,6.20
2023-02-21T00:59:17.803Z,5.40
2023-02-21T01:02:03.463Z,5.10
2023-02-21T01:04:49.445Z,5.50
2023-02-21T01:07:35.101Z,5.30
2023-02-21T01:10:20.852Z,5.50
2023-02-21T01:13:06.593Z,5.30
2023-02-21T01:18:38.891Z,5.50
2023-02-21T01:21:24.628Z,5.80
2023-02-21T01:24:12.110Z,5.40
2023-02-21T01:26:58.302Z,5.50
2023-02-21T01:29:43.940Z,6.00
2023-02-21T01:32:30.455Z,4.60
2023-02-21T01:38:04.474Z,5.80
2023-02-21T01:40:50.173Z,5.60
2023-02-21T01:43:38.552Z,5.90
2023-02-21T01:46:24.981Z,5.80
2023-02-21T01:49:13.662Z,5.20
2023-02-21T01:52:01.148Z,6.10
2023-02-21T01:55:02.575Z,5.50
2023-02-21T01:57:48.492Z,5.50
2023-02-21T02:00:36.281Z,5.70
2023-02-21T02:03:24.799Z,5.50
2023-02-21T02:06:15.172Z,5.70
2023-02-21T02:12:12.934Z,6.20
2023-02-21T02:14:54.375Z,5.60
2023-02-21T02:17:55.454Z,5.50
2023-02-21T02:20:49.134Z,6.00
2023-02-21T02:23:37.638Z,6.00
2023-02-21T02:26:41.762Z,5.70
2023-02-21T02:29:25.963Z,5.80
2023-02-21T02:32:15.080Z,5.50
2023-02-21T02:35:04.754Z,5.40
2023-02-21T02:37:51.081Z,5.20
2023-02-21T02:40:35.340Z,5.40
2023-02-21T02:43:22.521Z,5.20
2023-02-21T02:45:54.416Z,5.10
2023-02-21T02:48:28.379Z,5.40
2023-02-21T02:50:56.265Z,4.70
2023-02-21T02:53:28.105Z,5.00
2023-02-21T02:56:02.346Z,5.30
2023-02-21T02:58:37.623Z,5.60
2023-02-21T03:01:17.255Z,5.50
2023-02-21T03:04:18.029Z,5.30
2023-02-21T03:07:15.625Z,5.80
2023-02-21T03:10:05.056Z,5.30
2023-02-21T03:12:50.489Z,5.40
2023-02-21T03:15:52.279Z,5.60
2023-02-21T03:18:50.677Z,5.70
2023-02-21T03:21:26.734Z,5.90
2023-02-21T03:23:59.979Z,5.90
2023-02-21T03:26:31.956Z,5.60
2023-02-21T03:29:09.967Z,5.60
2023-02-21T03:31:44.111Z,5.50
2023-02-21T03:34:12.191Z,5.60
2023-02-21T03:36:39.604Z,5.70
2023-02-21T03:39:07.388Z,5.40
2023-02-21T03:41:34.471Z,5.40
2023-02-21T03:44:01.777Z,6.00
2023-02-21T03:46:29.137Z,5.50
2023-02-21T03:48:56.544Z,5.60
2023-02-21T03:51:27.908Z,5.40
2023-02-21T03:53:55.303Z,5.40
2023-02-21T03:56:41.255Z,5.30
2023-02-21T03:59:25.376Z,5.70
2023-02-21T04:01:53.259Z,5.60
2023-02-21T04:04:21.578Z,5.80
2023-02-21T04:06:56.767Z,5.70
2023-02-21T04:09:26.499Z,5.60
2023-02-21T04:14:22.237Z,5.70
2023-02-21T04:19:17.793Z,5.30
2023-02-21T04:21:45.536Z,5.50
2023-02-21T04:24:14.113Z,5.10
2023-02-21T04:26:41.740Z,5.60
2023-02-21T04:29:12.267Z,5.10
2023-02-21T04:31:40.226Z,5.40
2023-02-21T04:36:43.529Z,5.10
2023-02-21T04:39:11.022Z,5.40
2023-02-21T04:41:39.691Z,5.60
2023-02-21T04:44:07.585Z,5.30
2023-02-21T04:46:34.718Z,5.50
2023-02-21T04:49:02.461Z,5.40
2023-02-21T04:51:29.461Z,5.40
2023-02-21T04:56:27.661Z,5.80
2023-02-21T04:58:55.548Z,5.30
2023-02-21T05:01:23.549Z,5.30
2023-02-21T05:03:51.053Z,5.50
2023-02-21T05:06:20.325Z,5.30
2023-02-21T05:08:47.883Z,5.40
2023-02-21T05:11:15.388Z,5.30
2023-02-21T05:13:43.357Z,5.20
2023-02-21T05:16:11.370Z,5.00
2023-02-21T05:18:41.684Z,5.20
2023-02-21T05:21:08.686Z,5.40
2023-02-21T05:23:36.906Z,5.00
2023-02-21T05:26:09.657Z,4.70
2023-02-21T05:28:38.415Z,5.30
2023-02-21T05:31:06.200Z,5.10
2023-02-21T05:33:34.062Z,5.00
2023-02-21T05:36:01.292Z,5.20
2023-02-21T05:38:28.595Z,5.10
2023-02-21T05:40:55.599Z,4.30
2023-02-21T05:43:23.147Z,4.90
2023-02-21T05:45:50.239Z,5.00
2023-02-21T05:48:17.579Z,4.30
2023-02-21T05:50:45.440Z,4.90
2023-02-21T05:53:12.788Z,5.10
2023-02-21T05:55:39.724Z,4.70
2023-02-21T05:58:07.203Z,4.80
2023-02-21T06:00:34.251Z,4.50
2023-02-21T06:03:04.715Z,5.10
2023-02-21T06:05:32.362Z,5.10
2023-02-21T06:07:59.824Z,5.10
2023-02-21T06:10:27.824Z,4.70
2023-02-21T06:12:55.071Z,4.70
2023-02-21T06:15:22.083Z,5.20
2023-02-21T06:17:49.347Z,5.10
2023-02-21T06:20:16.821Z,4.70
2023-02-21T06:22:44.815Z,4.80
2023-02-21T06:25:12.089Z,5.10
2023-02-21T06:27:39.388Z,5.30
2023-02-21T06:30:07.244Z,5.30
2023-02-21T06:32:34.617Z,5.20
2023-02-21T06:35:02.422Z,5.10
2023-02-21T06:37:29.872Z,5.30
2023-02-21T06:39:56.948Z,5.20
2023-02-21T06:42:24.212Z,5.00
2023-02-21T06:47:19.443Z,5.20
2023-02-21T06:49:46.684Z,5.30
2023-02-21T06:52:14.161Z,5.10
2023-02-21T06:54:41.303Z,5.60
2023-02-21T06:57:08.579Z,5.30
2023-02-21T06:59:35.598Z,5.40
2023-02-21T07:02:04.757Z,5.30
2023-02-21T07:06:59.697Z,5.30
2023-02-21T07:09:26.686Z,5.50
2023-02-21T07:11:54.073Z,5.50
2023-02-21T07:14:21.114Z,5.30
2023-02-21T07:16:48.452Z,5.40
2023-02-21T07:21:44.146Z,5.40
2023-02-21T07:24:11.198Z,5.30
2023-02-21T07:26:38.927Z,5.40
2023-02-21T07:29:06.570Z,5.80
2023-02-21T07:31:34.040Z,5.90
2023-02-21T07:34:01.242Z,6.00
2023-02-21T07:36:28.657Z,6.20
2023-02-21T07:38:55.837Z,6.00
2023-02-21T07:41:23.154Z,6.30
2023-02-21T07:43:51.191Z,5.90
2023-02-21T07:46:19.152Z,5.80
2023-02-21T07:48:46.211Z,5.30
2023-02-21T07:51:14.045Z,5.80
2023-02-21T07:53:41.520Z,6.10
2023-02-21T07:56:08.905Z,6.20
2023-02-21T07:58:38.655Z,5.90
2023-02-21T08:01:07.210Z,6.00
2023-02-21T08:08:30.772Z,6.70
2023-02-21T08:10:58.134Z,6.40
2023-02-21T08:15:53.158Z,6.50
2023-02-21T08:18:24.527Z,6.70
2023-02-21T08:20:56.686Z,6.50
2023-02-21T08:23:24.269Z,6.80
2023-02-21T08:25:51.886Z,6.80
2023-02-21T08:30:46.696Z,6.80
2023-02-21T08:33:13.674Z,7.20
2023-02-21T08:35:41.130Z,6.90
2023-02-21T08:38:08.558Z,7.10
2023-02-21T08:40:35.793Z,7.00
2023-02-21T08:43:02.810Z,6.80
2023-02-21T08:45:30.494Z,7.30
2023-02-21T08:47:58.782Z,7.30
2023-02-21T08:50:28.484Z,8.40
2023-02-21T08:52:56.614Z,7.10
2023-02-21T08:55:25.212Z,7.10
2023-02-21T08:57:53.649Z,6.80
2023-02-21T09:00:23.494Z,7.20
2023-02-21T09:02:54.262Z,7.60
2023-02-21T09:05:29.309Z,7.20
2023-02-21T09:07:59.743Z,7.10
2023-02-21T09:10:29.518Z,7.10
2023-02-21T09:12:56.593Z,6.90
2023-02-21T09:15:24.039Z,7.40
2023-02-21T09:17:51.199Z,7.30
2023-02-21T09:20:24.612Z,7.10
2023-02-21T09:22:52.070Z,8.00
2023-02-21T09:25:24.539Z,8.30
2023-02-21T09:27:54.435Z,7.60
2023-02-21T09:30:26.278Z,7.70
2023-02-21T09:32:54.820Z,7.80
2023-02-21T09:35:23.370Z,7.80
2023-02-21T09:37:50.556Z,8.00
2023-02-21T09:40:24.160Z,7.70
2023-02-21T09:42:58.469Z,7.10
2023-02-21T09:45:31.391Z,7.70
2023-02-21T09:48:01.254Z,7.60
2023-02-21T09:50:33.931Z,7.20
2023-02-21T09:55:39.166Z,7.50
2023-02-21T09:58:16.254Z,7.50
2023-02-21T10:00:46.512Z,7.50
2023-02-21T10:03:31.710Z,7.80
2023-02-21T10:06:35.145Z,8.00
2023-02-21T10:09:13.722Z,7.80
2023-02-21T10:12:00.924Z,7.80
2023-02-21T10:14:43.749Z,8.00
2023-02-21T10:17:33.612Z,7.80
2023-02-21T10:20:39.133Z,7.50
2023-02-21T10:23:19.055Z,7.80
2023-02-21T10:25:46.917Z,7.50
2023-02-21T10:28:26.326Z,6.90
2023-02-21T10:31:00.003Z,7.70
2023-02-21T10:33:27.618Z,7.60
2023-02-21T10:35:55.128Z,7.50
2023-02-21T10:38:28.053Z,7.70
2023-02-21T10:41:02.312Z,7.80
2023-02-21T10:43:48.531Z,7.70
2023-02-21T10:46:22.116Z,8.50
2023-02-21T10:48:53.950Z,7.80
2023-02-21T10:51:33.719Z,8.20
2023-02-21T10:54:21.176Z,7.90
2023-02-21T10:56:49.972Z,8.30
2023-02-21T10:59:26.557Z,8.30
2023-02-21T11:01:54.941Z,8.00
2023-02-21T11:04:22.604Z,8.40
2023-02-21T11:06:59.279Z,8.70
2023-02-21T11:09:35.082Z,8.50
2023-02-21T11:12:05.002Z,8.20
2023-02-21T11:14:35.058Z,8.60
2023-02-21T11:17:17.400Z,8.20
2023-02-21T11:19:49.664Z,8.30
2023-02-21T11:22:36.927Z,8.40
2023-02-21T11:25:18.874Z,8.60
2023-02-21T11:27:57.918Z,8.90
2023-02-21T11:30:25.800Z,8.80
2023-02-21T11:32:59.978Z,8.70
2023-02-21T11:35:37.780Z,8.90
2023-02-21T11:38:08.543Z,8.60
2023-02-21T11:40:48.972Z,8.70
2023-02-21T11:43:26.600Z,9.20
2023-02-21T11:46:00.127Z,9.20
2023-02-21T11:48:32.864Z,9.00
2023-02-21T11:51:07.356Z,9.10
2023-02-21T11:53:42.824Z,9.20
2023-02-21T11:56:36.253Z,9.20
2023-02-21T11:59:17.673Z,8.80
2023-02-21T12:02:26.687Z,9.00
2023-02-21T12:05:26.252Z,9.00
2023-02-21T12:08:24.149Z,9.30
2023-02-21T12:11:04.462Z,9.10
2023-02-21T12:14:00.248Z,8.90
2023-02-21T12:16:43.112Z,9.10
2023-02-21T12:19:13.177Z,8.80
2023-02-21T12:22:02.237Z,9.00
2023-02-21T12:24:47.476Z,8.70
2023-02-21T12:27:30.832Z,8.70
2023-02-21T12:30:00.971Z,8.80
2023-02-21T12:32:51.283Z,8.50
2023-02-21T12:35:44.245Z,8.80
2023-02-21T12:38:19.866Z,8.80
2023-02-21T12:41:22.293Z,8.80
2023-02-21T12:44:02.610Z,9.00
2023-02-21T12:46:39.570Z,8.60
2023-02-21T12:49:18.306Z,9.10
2023-02-21T12:52:14.608Z,8.80
2023-02-21T12:55:12.211Z,8.60
2023-02-21T12:58:00.161Z,8.60
2023-02-21T13:00:34.968Z,9.00
2023-02-21T13:03:23.898Z,8.80
2023-02-21T13:05:57.882Z,8.80
2023-02-21T13:08:31.408Z,9.80
2023-02-21T13:11:18.841Z,8.40
2023-02-21T13:13:47.429Z,8.50
2023-02-21T13:16:16.086Z,8.30
2023-02-21T13:19:02.234Z,8.50
2023-02-21T13:21:53.382Z,8.10
2023-02-21T13:24:40.990Z,8.50
2023-02-21T13:27:28.216Z,8.50
2023-02-21T13:30:12.839Z,8.40
2023-02-21T13:32:49.518Z,8.30
2023-02-21T13:35:21.432Z,7.90
2023-02-21T13:37:51.684Z,8.90
2023-02-21T13:40:50.888Z,8.40
2023-02-21T13:43:29.629Z,8.10
2023-02-21T13:46:45.665Z,8.10
2023-02-21T13:49:39.694Z,8.30
2023-02-21T13:52:25.136Z,8.20
2023-02-21T13:55:21.463Z,8.00
2023-02-21T13:58:11.459Z,8.10
2023-02-21T14:00:38.487Z,7.60
2023-02-21T14:03:12.586Z,7.90
2023-02-21T14:05:52.341Z,7.60
2023-02-21T14:08:26.229Z,7.70
2023-02-21T14:11:06.933Z,7.70
2023-02-21T14:13:39.471Z,7.70
2023-02-21T14:16:12.457Z,7.80
2023-02-21T14:18:51.656Z,7.90
2023-02-21T14:21:35.655Z,7.90
2023-02-21T14:24:20.866Z,7.80
2023-02-21T14:26:59.700Z,7.60
2023-02-21T14:29:35.991Z,7.70
2023-02-21T14:32:03.771Z,7.60
2023-02-21T14:34:37.499Z,7.50
2023-02-21T14:37:16.525Z,7.60
2023-02-21T14:39:51.252Z,7.60
2023-02-21T14:42:44.455Z,7.60
2023-02-21T14:45:11.744Z,7.60
2023-02-21T14:47:38.838Z,8.00
2023-02-21T14:50:44.114Z,7.40
2023-02-21T14:53:33.577Z,7.40
2023-02-21T14:56:22.591Z,7.70
2023-02-21T14:58:59.459Z,7.60
2023-02-21T15:02:10.729Z,7.40
2023-02-21T15:04:46.466Z,7.60
2023-02-21T15:07:26.159Z,7.30
2023-02-21T15:10:12.587Z,7.60
2023-02-21T15:12:45.009Z,7.40
2023-02-21T15:15:20.362Z,7.40
2023-02-21T15:17:58.726Z,7.80
2023-02-21T15:20:30.313Z,7.40
2023-02-21T15:23:14.335Z,7.30
2023-02-21T15:25:52.821Z,7.40
2023-02-21T15:28:28.034Z,7.30
2023-02-21T15:31:03.301Z,7.10
2023-02-21T15:33:39.137Z,7.40
2023-02-21T15:36:13.204Z,7.00
2023-02-21T15:38:50.572Z,6.90
2023-02-21T15:41:39.328Z,7.10
2023-02-21T15:44:20.559Z,7.20
2023-02-21T15:46:55.971Z,7.00
2023-02-21T15:49:26.700Z,7.20
2023-02-21T15:51:57.319Z,6.90
2023-02-21T15:54:31.490Z,7.00
2023-02-21T15:57:11.446Z,7.00
2023-02-21T15:59:40.067Z,7.30
2023-02-21T16:02:11.683Z,7.10
2023-02-21T16:04:41.368Z,6.80
2023-02-21T16:07:19.894Z,7.10
2023-02-21T16:09:58.569Z,7.10
2023-02-21T16:12:39.764Z,6.60
2023-02-21T16:15:23.214Z,6.90
2023-02-21T16:18:19.618Z,7.20
2023-02-21T16:21:00.064Z,7.30
2023-02-21T16:23:31.224Z,7.80
2023-02-21T16:26:09.215Z,7.60
2023-02-21T16:28:37.883Z,7.30
2023-02-21T16:31:15.655Z,6.80
2023-02-21T16:33:43.263Z,6.80
2023-02-21T16:36:27.605Z,7.00
2023-02-21T16:38:56.222Z,6.80
2023-02-21T16:41:24.283Z,6.60
2023-02-21T16:43:51.754Z,6.70
2023-02-21T16:46:30.649Z,6.60
2023-02-21T16:49:01.034Z,6.80
2023-02-21T16:51:33.780Z,6.70
2023-02-21T16:54:01.897Z,6.60
2023-02-21T16:56:29.493Z,6.40
2023-02-21T16:58:59.972Z,6.70
2023-02-21T17:01:31.113Z,6.40
2023-02-21T17:03:58.921Z,6.50
2023-02-21T17:06:27.147Z,6.60
2023-02-21T17:11:21.974Z,6.20
2023-02-21T17:13:52.188Z,6.70
2023-02-21T17:16:19.816Z,6.40
2023-02-21T17:18:47.424Z,6.60
2023-02-21T17:21:17.862Z,6.40
2023-02-21T17:23:45.205Z,6.20
2023-02-21T17:26:13.130Z,6.20
2023-02-21T17:28:41.398Z,6.20
2023-02-21T17:31:11.587Z,6.10
2023-02-21T17:33:40.848Z,6.00
2023-02-21T17:36:08.584Z,6.40
2023-02-21T17:38:35.675Z,5.90
2023-02-21T17:41:05.973Z,5.90
2023-02-21T17:43:33.424Z,6.40
2023-02-21T17:46:01.001Z,6.70
2023-02-21T17:48:34.035Z,6.20
2023-02-21T17:51:01.794Z,6.60
2023-02-21T17:53:28.880Z,6.40
2023-02-21T17:55:59.462Z,6.20
2023-02-21T17:58:27.815Z,6.20
2023-02-21T18:00:55.673Z,6.30
2023-02-21T18:03:23.433Z,5.80
2023-02-21T18:05:51.617Z,6.00
2023-02-21T18:08:19.776Z,6.10
2023-02-21T18:10:47.386Z,5.60
2023-02-21T18:13:19.659Z,6.10
2023-02-21T18:15:47.717Z,5.90
2023-02-21T18:18:14.986Z,5.90
2023-02-21T18:20:42.773Z,5.70
2023-02-21T18:23:09.865Z,5.30
2023-02-21T18:25:37.248Z,5.30
2023-02-21T18:28:06.589Z,5.60
2023-02-21T18:30:33.945Z,5.60
2023-02-21T18:33:01.436Z,5.40
2023-02-21T18:35:28.832Z,5.30
2023-02-21T18:40:34.281Z,4.90
2023-02-21T18:43:02.212Z,5.20
2023-02-21T18:45:30.297Z,5.50
2023-02-21T18:47:57.430Z,5.30
2023-02-21T18:50:24.743Z,5.20
2023-02-21T18:52:51.953Z,5.00
2023-02-21T18:55:19.996Z,4.60
2023-02-21T18:57:51.437Z,4.90
2023-02-21T19:00:22.721Z,4.90
2023-02-21T19:02:49.866Z,5.00
2023-02-21T19:05:19.973Z,4.90
2023-02-21T19:07:47.121Z,4.70
2023-02-21T19:10:18.596Z,4.30
2023-02-21T19:12:45.989Z,4.70
2023-02-21T19:15:13.993Z,4.60
2023-02-21T19:17:42.873Z,4.70
2023-02-21T19:20:12.199Z,5.20
2023-02-21T19:22:41.528Z,5.00
2023-02-21T19:25:08.822Z,4.90
2023-02-21T19:27:35.818Z,5.00
2023-02-21T19:30:04.143Z,4.90
2023-02-21T19:32:31.427Z,4.90
2023-02-21T19:34:58.860Z,4.80
2023-02-21T19:37:28.848Z,5.10
2023-02-21T19:39:56.452Z,5.10
2023-02-21T19:42:23.827Z,4.80
2023-02-21T19:44:51.531Z,5.20
2023-02-21T19:47:18.565Z,5.30
2023-02-21T19:49:48.990Z,5.50
2023-02-21T19:52:16.003Z,5.20
2023-02-21T19:54:43.398Z,5.60
2023-02-21T19:57:10.501Z,5.10
2023-02-21T19:59:37.841Z,5.30
2023-02-21T20:02:07.306Z,5.30
2023-02-21T20:04:35.135Z,5.20
2023-02-21T20:07:02.237Z,5.20
2023-02-21T20:09:29.671Z,5.10
2023-02-21T20:11:57.295Z,5.30
2023-02-21T20:14:24.650Z,4.70
2023-02-21T20:16:57.095Z,4.60
2023-02-21T20:19:28.283Z,4.50
2023-02-21T20:21:57.696Z,4.90
2023-02-21T20:24:25.118Z,4.40
2023-02-21T20:26:53.611Z,4.50
2023-02-21T20:29:22.038Z,4.20
2023-02-21T20:31:50.024Z,4.40
2023-02-21T20:34:17.635Z,4.40
2023-02-21T20:36:45.956Z,4.30
2023-02-21T20:39:23.107Z,4.40
2023-02-21T20:41:50.157Z,4.10
2023-02-21T20:44:17.514Z,4.10
2023-02-21T20:46:44.588Z,3.90
2023-02-21T20:49:14.268Z,3.70
2023-02-21T20:51:44.834Z,3.70
2023-02-21T20:54:19.876Z,3.80
2023-02-21T20:56:49.163Z,3.80
2023-02-21T20:59:29.247Z,3.70
2023-02-21T21:01:58.315Z,3.80
2023-02-21T21:04:35.717Z,3.80
2023-02-21T21:07:08.246Z,4.00
2023-02-21T21:09:37.642Z,3.60
2023-02-21T21:12:11.952Z,3.70
2023-02-21T21:14:43.051Z,3.50
2023-02-21T21:17:13.930Z,3.30
2023-02-21T21:19:43.850Z,4.00
2023-02-21T21:22:14.913Z,3.90
2023-02-21T21:24:42.471Z,3.60
2023-02-21T21:27:10.360Z,3.70
2023-02-21T21:29:42.338Z,4.00
2023-02-21T21:32:19.593Z,3.80
2023-02-21T21:34:49.207Z,3.90
2023-02-21T21:37:18.577Z,3.50
2023-02-21T21:39:49.306Z,4.00
2023-02-21T21:42:18.627Z,4.10
2023-02-21T21:44:53.643Z,3.40
2023-02-21T21:47:25.446Z,3.70
2023-02-21T21:49:53.469Z,3.90
2023-02-21T21:52:23.895Z,3.60
2023-02-21T21:54:52.298Z,4.10
2023-02-21T21:57:27.102Z,3.70
2023-02-21T21:59:55.198Z,4.10
2023-02-21T22:02:22.326Z,4.10
2023-02-21T22:04:53.236Z,3.90
2023-02-21T22:07:20.789Z,4.40
2023-02-21T22:12:17.956Z,3.50
2023-02-21T22:14:50.313Z,3.60
2023-02-21T22:17:18.776Z,3.30
2023-02-21T22:19:46.498Z,3.10
2023-02-21T22:22:16.010Z,2.90
2023-02-21T22:24:51.841Z,3.20
2023-02-21T22:27:18.842Z,3.20
2023-02-21T22:29:49.020Z,2.70
2023-02-21T22:32:16.500Z,2.80
2023-02-21T22:34:43.872Z,3.10
2023-02-21T22:37:10.833Z,2.70
2023-02-21T22:39:38.607Z,3.10
2023-02-21T22:42:08.804Z,2.80
2023-02-21T22:44:36.920Z,2.60
2023-02-21T22:47:05.147Z,2.40
2023-02-21T22:49:32.711Z,2.50
2023-02-21T22:52:00.798Z,2.50
2023-02-21T22:54:31.557Z,2.70
2023-02-21T22:57:03.005Z,2.60
2023-02-21T22:59:31.106Z,2.70
2023-02-21T23:02:00.921Z,2.60
2023-02-21T23:06:58.349Z,2.40
2023-02-21T23:09:28.172Z,2.00
2023-02-21T23:11:58.963Z,2.40
2023-02-21T23:14:27.599Z,1.70
2023-02-21T23:16:59.109Z,2.30
2023-02-21T23:19:29.458Z,2.30
2023-02-21T23:24:28.373Z,2.00
2023-02-21T23:26:55.573Z,2.10
2023-02-21T23:29:25.554Z,2.30
2023-02-21T23:31:58.303Z,2.80
2023-02-21T23:34:40.158Z,2.50
2023-02-21T23:37:09.438Z,2.70
2023-02-21T23:39:36.750Z,2.70
2023-02-21T23:44:36.084Z,2.70
2023-02-21T23:47:05.997Z,2.60
2023-02-21T23:49:33.537Z,2.70
2023-02-21T23:52:02.932Z,2.60
2023-02-21T23:57:00.734Z,2.70
2023-02-21T23:59:28.889Z,2.30
